sensor_id;sensor_type;location;lat;lon;timestamp;pressure;altitude;pressure_sealevel;temperature;humidity
84445;BME280;74683;48.402;10.596;2024-02-21T00:00:09;97516.59;;;1.10;91.31
84445;BME280;74683;48.402;10.596;2024-02-21T00:02:37;97511.47;;;1.08;90.76
84445;BME280;74683;48.402;10.596;2024-02-21T00:05:04;97507.66;;;1.09;91.04
84445;BME280;74683;48.402;10.596;2024-02-21T00:07:31;97514.97;;;1.09;91.10
84445;BME280;74683;48.402;10.596;2024-02-21T00:09:58;97507.91;;;1.08;90.88
84445;BME280;74683;48.402;10.596;2024-02-21T00:12:24;97508.47;;;1.10;91.05
84445;BME280;74683;48.402;10.596;2024-02-21T00:14:51;97506.59;;;1.10;90.72
84445;BME280;74683;48.402;10.596;2024-02-21T00:17:18;97503.06;;;1.10;91.05
84445;BME280;74683;48.402;10.596;2024-02-21T00:19:44;97507.66;;;1.09;90.61
84445;BME280;74683;48.402;10.596;2024-02-21T00:22:11;97499.78;;;1.08;90.60
84445;BME280;74683;48.402;10.596;2024-02-21T00:24:38;97499.78;;;1.08;91.01
84445;BME280;74683;48.402;10.596;2024-02-21T00:27:05;97500.63;;;1.08;91.30
84445;BME280;74683;48.402;10.596;2024-02-21T00:29:31;97499.53;;;1.09;90.68
84445;BME280;74683;48.402;10.596;2024-02-21T00:31:58;97491.97;;;1.11;90.96
84445;BME280;74683;48.402;10.596;2024-02-21T00:34:25;97496.56;;;1.11;91.06
84445;BME280;74683;48.402;10.596;2024-02-21T00:36:51;97496.31;;;1.12;90.94
84445;BME280;74683;48.402;10.596;2024-02-21T00:39:18;97489.53;;;1.15;90.93
84445;BME280;74683;48.402;10.596;2024-02-21T00:41:45;97491.72;;;1.18;90.69
84445;BME280;74683;48.402;10.596;2024-02-21T00:44:11;97474.41;;;1.19;90.89
84445;BME280;74683;48.402;10.596;2024-02-21T00:46:38;97484.44;;;1.24;90.76
84445;BME280;74683;48.402;10.596;2024-02-21T00:49:05;97483.88;;;1.27;90.54
84445;BME280;74683;48.402;10.596;2024-02-21T00:51:32;97475.75;;;1.27;90.21
84445;BME280;74683;48.402;10.596;2024-02-21T00:53:59;97479.59;;;1.31;90.47
84445;BME280;74683;48.402;10.596;2024-02-21T00:56:25;97480.13;;;1.33;90.19
84445;BME280;74683;48.402;10.596;2024-02-21T00:58:52;97480.13;;;1.33;90.38
84445;BME280;74683;48.402;10.596;2024-02-21T01:01:23;97480.69;;;1.35;90.07
84445;BME280;74683;48.402;10.596;2024-02-21T01:03:50;97489.34;;;1.37;90.29
84445;BME280;74683;48.402;10.596;2024-02-21T01:06:19;97484.75;;;1.37;90.20
84445;BME280;74683;48.402;10.596;2024-02-21T01:08:47;97476.38;;;1.39;90.13
84445;BME280;74683;48.402;10.596;2024-02-21T01:11:15;97474.22;;;1.41;90.29
84445;BME280;74683;48.402;10.596;2024-02-21T01:13:42;97475.03;;;1.41;90.03
84445;BME280;74683;48.402;10.596;2024-02-21T01:16:09;97469.34;;;1.43;90.48
84445;BME280;74683;48.402;10.596;2024-02-21T01:18:39;97467.16;;;1.45;90.25
84445;BME280;74683;48.402;10.596;2024-02-21T01:21:07;97459.56;;;1.47;90.18
84445;BME280;74683;48.402;10.596;2024-02-21T01:23:35;97452.03;;;1.49;89.75
84445;BME280;74683;48.402;10.596;2024-02-21T01:26:02;97441.72;;;1.51;90.12
84445;BME280;74683;48.402;10.596;2024-02-21T01:28:29;97434.13;;;1.53;89.82
84445;BME280;74683;48.402;10.596;2024-02-21T01:30:57;97442.25;;;1.53;90.17
84445;BME280;74683;48.402;10.596;2024-02-21T01:33:24;97434.41;;;1.57;89.88
84445;BME280;74683;48.402;10.596;2024-02-21T01:35:50;97432.00;;;1.60;89.71
84445;BME280;74683;48.402;10.596;2024-02-21T01:38:17;97425.47;;;1.61;89.81
84445;BME280;74683;48.402;10.596;2024-02-21T01:40:44;97422.50;;;1.63;89.64
84445;BME280;74683;48.402;10.596;2024-02-21T01:43:19;97428.72;;;1.63;90.04
84445;BME280;74683;48.402;10.596;2024-02-21T01:45:50;97424.13;;;1.64;89.52
84445;BME280;74683;48.402;10.596;2024-02-21T01:48:18;97418.44;;;1.65;89.65
84445;BME280;74683;48.402;10.596;2024-02-21T01:50:52;97417.09;;;1.68;89.21
84445;BME280;74683;48.402;10.596;2024-02-21T01:53:22;97411.09;;;1.66;89.39
84445;BME280;74683;48.402;10.596;2024-02-21T01:55:49;97403.53;;;1.63;89.51
84445;BME280;74683;48.402;10.596;2024-02-21T01:58:17;97402.72;;;1.62;89.39
84445;BME280;74683;48.402;10.596;2024-02-21T02:00:46;97394.06;;;1.60;89.48
84445;BME280;74683;48.402;10.596;2024-02-21T02:03:14;97388.09;;;1.63;89.63
84445;BME280;74683;48.402;10.596;2024-02-21T02:05:48;97388.09;;;1.63;89.95
84445;BME280;74683;48.402;10.596;2024-02-21T02:08:17;97376.16;;;1.64;89.32
84445;BME280;74683;48.402;10.596;2024-02-21T02:10:44;97378.88;;;1.64;89.53
84445;BME280;74683;48.402;10.596;2024-02-21T02:13:12;97375.06;;;1.65;89.72
84445;BME280;74683;48.402;10.596;2024-02-21T02:15:47;97370.75;;;1.69;89.80
84445;BME280;74683;48.402;10.596;2024-02-21T02:18:14;97375.91;;;1.71;89.38
84445;BME280;74683;48.402;10.596;2024-02-21T02:20:43;97372.38;;;1.70;89.47
84445;BME280;74683;48.402;10.596;2024-02-21T02:25:39;97357.75;;;1.71;89.64
84445;BME280;74683;48.402;10.596;2024-02-21T02:28:06;97361.53;;;1.76;89.52
84445;BME280;74683;48.402;10.596;2024-02-21T02:34:20;97352.31;;;1.82;89.70
84445;BME280;74683;48.402;10.596;2024-02-21T02:36:47;97350.97;;;1.89;89.31
84445;BME280;74683;48.402;10.596;2024-02-21T02:39:15;97350.69;;;1.91;89.18
84445;BME280;74683;48.402;10.596;2024-02-21T02:41:42;97355.81;;;1.92;89.24
84445;BME280;74683;48.402;10.596;2024-02-21T02:44:09;97352.84;;;1.94;89.36
84445;BME280;74683;48.402;10.596;2024-02-21T02:46:35;97353.38;;;1.96;89.22
84445;BME280;74683;48.402;10.596;2024-02-21T02:49:02;97346.34;;;2.00;89.37
84445;BME280;74683;48.402;10.596;2024-02-21T02:51:29;97339.81;;;2.06;89.34
84445;BME280;74683;48.402;10.596;2024-02-21T02:53:55;97334.91;;;2.13;88.58
84445;BME280;74683;48.402;10.596;2024-02-21T02:56:23;97336.00;;;2.17;88.71
84445;BME280;74683;48.402;10.596;2024-02-21T02:58:50;97320.28;;;2.19;88.01
84445;BME280;74683;48.402;10.596;2024-02-21T03:01:17;97318.91;;;2.22;88.56
84445;BME280;74683;48.402;10.596;2024-02-21T03:03:43;97325.69;;;2.19;87.92
84445;BME280;74683;48.402;10.596;2024-02-21T03:06:12;97330.56;;;2.22;88.13
84445;BME280;74683;48.402;10.596;2024-02-21T03:08:38;97326.47;;;2.25;88.32
84445;BME280;74683;48.402;10.596;2024-02-21T03:11:06;97322.69;;;2.26;88.09
84445;BME280;74683;48.402;10.596;2024-02-21T03:13:33;97327.28;;;2.25;88.32
84445;BME280;74683;48.402;10.596;2024-02-21T03:16:00;97328.38;;;2.29;87.92
84445;BME280;74683;48.402;10.596;2024-02-21T03:18:27;97329.19;;;2.30;88.17
84445;BME280;74683;48.402;10.596;2024-02-21T03:20:53;97326.47;;;2.30;87.75
84445;BME280;74683;48.402;10.596;2024-02-21T03:23:20;97321.88;;;2.30;88.23
84445;BME280;74683;48.402;10.596;2024-02-21T03:25:47;97321.59;;;2.32;88.32
84445;BME280;74683;48.402;10.596;2024-02-21T03:28:14;97322.41;;;2.33;88.54
84445;BME280;74683;48.402;10.596;2024-02-21T03:30:41;97309.13;;;2.36;88.55
84445;BME280;74683;48.402;10.596;2024-02-21T03:33:08;97306.94;;;2.38;88.52
84445;BME280;74683;48.402;10.596;2024-02-21T03:35:35;97302.28;;;2.44;88.12
84445;BME280;74683;48.402;10.596;2024-02-21T03:38:01;97307.19;;;2.47;88.12
84445;BME280;74683;48.402;10.596;2024-02-21T03:40:28;97313.38;;;2.52;88.00
84445;BME280;74683;48.402;10.596;2024-02-21T03:42:55;97316.63;;;2.59;87.18
84445;BME280;74683;48.402;10.596;2024-02-21T03:45:21;97313.63;;;2.66;87.11
84445;BME280;74683;48.402;10.596;2024-02-21T03:47:48;97313.06;;;2.69;86.69
84445;BME280;74683;48.402;10.596;2024-02-21T03:50:15;97315.47;;;2.71;86.72
84445;BME280;74683;48.402;10.596;2024-02-21T03:52:42;97311.16;;;2.70;86.99
84445;BME280;74683;48.402;10.596;2024-02-21T03:55:09;97311.66;;;2.72;86.91
84445;BME280;74683;48.402;10.596;2024-02-21T03:57:35;97308.72;;;2.68;86.71
84445;BME280;74683;48.402;10.596;2024-02-21T04:00:02;97305.19;;;2.68;87.11
84445;BME280;74683;48.402;10.596;2024-02-21T04:02:29;97301.09;;;2.65;87.15
84445;BME280;74683;48.402;10.596;2024-02-21T04:04:56;97300.28;;;2.65;87.00
84445;BME280;74683;48.402;10.596;2024-02-21T04:07:23;97299.22;;;2.66;87.04
84445;BME280;74683;48.402;10.596;2024-02-21T04:09:49;97304.38;;;2.62;87.27
84445;BME280;74683;48.402;10.596;2024-02-21T04:12:16;97297.06;;;2.63;87.85
84445;BME280;74683;48.402;10.596;2024-02-21T04:14:42;97294.63;;;2.61;87.57
84445;BME280;74683;48.402;10.596;2024-02-21T04:17:12;97286.47;;;2.61;87.38
84445;BME280;74683;48.402;10.596;2024-02-21T04:19:39;97282.09;;;2.65;87.66
84445;BME280;74683;48.402;10.596;2024-02-21T04:22:06;97280.47;;;2.69;86.91
84445;BME280;74683;48.402;10.596;2024-02-21T04:24:32;97269.56;;;2.74;87.00
84445;BME280;74683;48.402;10.596;2024-02-21T04:26:59;97267.38;;;2.81;87.15
84445;BME280;74683;48.402;10.596;2024-02-21T04:29:25;97258.94;;;2.88;86.43
84445;BME280;74683;48.402;10.596;2024-02-21T04:31:54;97254.81;;;2.91;86.37
84445;BME280;74683;48.402;10.596;2024-02-21T04:34:21;97239.88;;;2.93;86.49
84445;BME280;74683;48.402;10.596;2024-02-21T04:36:47;97238.50;;;2.96;86.46
84445;BME280;74683;48.402;10.596;2024-02-21T04:39:14;97237.72;;;2.95;85.83
84445;BME280;74683;48.402;10.596;2024-02-21T04:41:41;97230.91;;;2.98;85.90
84445;BME280;74683;48.402;10.596;2024-02-21T04:44:07;97228.97;;;2.98;85.67
84445;BME280;74683;48.402;10.596;2024-02-21T04:46:35;97225.47;;;2.98;85.55
84445;BME280;74683;48.402;10.596;2024-02-21T04:49:02;97225.75;;;2.96;85.51
84445;BME280;74683;48.402;10.596;2024-02-21T04:51:28;97218.44;;;2.92;85.95
84445;BME280;74683;48.402;10.596;2024-02-21T04:53:55;97227.66;;;2.91;85.64
84445;BME280;74683;48.402;10.596;2024-02-21T04:56:22;97226.34;;;2.88;86.09
84445;BME280;74683;48.402;10.596;2024-02-21T04:58:48;97231.50;;;2.84;85.62
84445;BME280;74683;48.402;10.596;2024-02-21T05:01:15;97216.88;;;2.85;85.63
84445;BME280;74683;48.402;10.596;2024-02-21T05:03:42;97211.16;;;2.82;85.66
84445;BME280;74683;48.402;10.596;2024-02-21T05:06:09;97215.78;;;2.81;86.24
84445;BME280;74683;48.402;10.596;2024-02-21T05:08:35;97203.31;;;2.80;85.60
84445;BME280;74683;48.402;10.596;2024-02-21T05:11:02;97211.16;;;2.82;86.05
84445;BME280;74683;48.402;10.596;2024-02-21T05:13:29;97203.03;;;2.82;85.79
84445;BME280;74683;48.402;10.596;2024-02-21T05:15:55;97197.59;;;2.82;85.91
84445;BME280;74683;48.402;10.596;2024-02-21T05:18:22;97197.84;;;2.85;85.46
84445;BME280;74683;48.402;10.596;2024-02-21T05:20:49;97195.66;;;2.87;85.75
84445;BME280;74683;48.402;10.596;2024-02-21T05:23:15;97193.75;;;2.88;85.76
84445;BME280;74683;48.402;10.596;2024-02-21T05:25:42;97186.41;;;2.88;85.01
84445;BME280;74683;48.402;10.596;2024-02-21T05:28:09;97181.00;;;2.88;85.14
84445;BME280;74683;48.402;10.596;2024-02-21T05:30:35;97181.78;;;2.89;85.77
84445;BME280;74683;48.402;10.596;2024-02-21T05:33:05;97171.16;;;2.93;84.92
84445;BME280;74683;48.402;10.596;2024-02-21T05:35:34;97164.63;;;2.94;84.41
84445;BME280;74683;48.402;10.596;2024-02-21T05:38:00;97161.69;;;2.90;84.33
84445;BME280;74683;48.402;10.596;2024-02-21T05:40:27;97163.59;;;2.90;84.61
84445;BME280;74683;48.402;10.596;2024-02-21T05:42:54;97151.94;;;2.89;84.26
84445;BME280;74683;48.402;10.596;2024-02-21T05:45:20;97151.34;;;2.92;83.42
84445;BME280;74683;48.402;10.596;2024-02-21T05:47:47;97146.22;;;2.91;83.36
84445;BME280;74683;48.402;10.596;2024-02-21T05:50:14;97147.06;;;2.86;83.71
84445;BME280;74683;48.402;10.596;2024-02-21T05:52:41;97144.38;;;2.81;83.51
84445;BME280;74683;48.402;10.596;2024-02-21T05:55:08;97143.84;;;2.79;83.49
84445;BME280;74683;48.402;10.596;2024-02-21T05:57:35;97142.53;;;2.76;83.23
84445;BME280;74683;48.402;10.596;2024-02-21T06:00:06;97147.97;;;2.76;83.45
84445;BME280;74683;48.402;10.596;2024-02-21T06:02:32;97153.94;;;2.73;83.47
84445;BME280;74683;48.402;10.596;2024-02-21T06:04:59;97152.31;;;2.72;83.01
84445;BME280;74683;48.402;10.596;2024-02-21T06:07:26;97156.41;;;2.70;83.95
84445;BME280;74683;48.402;10.596;2024-02-21T06:09:53;97156.94;;;2.72;83.81
84445;BME280;74683;48.402;10.596;2024-02-21T06:12:19;97162.06;;;2.73;83.70
84445;BME280;74683;48.402;10.596;2024-02-21T06:14:46;97167.28;;;2.70;83.65
84445;BME280;74683;48.402;10.596;2024-02-21T06:17:12;97167.84;;;2.67;83.71
84445;BME280;74683;48.402;10.596;2024-02-21T06:19:40;97164.31;;;2.66;83.86
84445;BME280;74683;48.402;10.596;2024-02-21T06:22:08;97155.09;;;2.62;84.06
84445;BME280;74683;48.402;10.596;2024-02-21T06:24:35;97162.44;;;2.62;84.33
84445;BME280;74683;48.402;10.596;2024-02-21T06:27:06;97159.72;;;2.62;84.32
84445;BME280;74683;48.402;10.596;2024-02-21T06:29:36;97158.09;;;2.61;84.22
84445;BME280;74683;48.402;10.596;2024-02-21T06:32:03;97148.34;;;2.54;83.95
84445;BME280;74683;48.402;10.596;2024-02-21T06:34:31;97149.78;;;2.47;84.57
84445;BME280;74683;48.402;10.596;2024-02-21T06:37:00;97142.19;;;2.44;84.18
84445;BME280;74683;48.402;10.596;2024-02-21T06:39:27;97139.00;;;2.37;84.68
84445;BME280;74683;48.402;10.596;2024-02-21T06:41:55;97139.00;;;2.32;84.08
84445;BME280;74683;48.402;10.596;2024-02-21T06:44:27;97138.22;;;2.26;84.96
84445;BME280;74683;48.402;10.596;2024-02-21T06:46:54;97144.78;;;2.20;84.22
84445;BME280;74683;48.402;10.596;2024-02-21T06:49:21;97145.34;;;2.12;84.68
84445;BME280;74683;48.402;10.596;2024-02-21T06:51:48;97151.59;;;2.12;85.29
84445;BME280;74683;48.402;10.596;2024-02-21T06:54:15;97150.78;;;2.12;85.39
84445;BME280;74683;48.402;10.596;2024-02-21T06:56:41;97143.22;;;2.09;85.31
84445;BME280;74683;48.402;10.596;2024-02-21T06:59:08;97136.16;;;2.08;85.05
84445;BME280;74683;48.402;10.596;2024-02-21T07:01:35;97125.03;;;2.09;85.39
84445;BME280;74683;48.402;10.596;2024-02-21T07:04:02;97132.59;;;2.12;85.16
84445;BME280;74683;48.402;10.596;2024-02-21T07:06:28;97127.19;;;2.12;84.99
84445;BME280;74683;48.402;10.596;2024-02-21T07:08:59;97145.06;;;2.13;85.00
84445;BME280;74683;48.402;10.596;2024-02-21T07:11:25;97152.91;;;2.15;85.32
84445;BME280;74683;48.402;10.596;2024-02-21T07:13:52;97152.91;;;2.15;85.60
84445;BME280;74683;48.402;10.596;2024-02-21T07:16:19;97154.31;;;2.12;85.73
84445;BME280;74683;48.402;10.596;2024-02-21T07:18:47;97154.06;;;2.09;85.48
84445;BME280;74683;48.402;10.596;2024-02-21T07:21:13;97145.09;;;2.08;85.86
84445;BME280;74683;48.402;10.596;2024-02-21T07:23:41;97130.97;;;2.11;85.71
84445;BME280;74683;48.402;10.596;2024-02-21T07:26:08;97129.06;;;2.17;85.85
84445;BME280;74683;48.402;10.596;2024-02-21T07:28:35;97123.03;;;2.25;85.82
84445;BME280;74683;48.402;10.596;2024-02-21T07:31:02;97115.94;;;2.34;85.61
84445;BME280;74683;48.402;10.596;2024-02-21T07:33:29;97119.94;;;2.47;85.46
84445;BME280;74683;48.402;10.596;2024-02-21T07:35:57;97120.91;;;2.61;84.77
84445;BME280;74683;48.402;10.596;2024-02-21T07:38:23;97125.16;;;2.77;84.69
84445;BME280;74683;48.402;10.596;2024-02-21T07:40:50;97115.25;;;2.92;83.97
84445;BME280;74683;48.402;10.596;2024-02-21T07:43:17;97119.16;;;3.09;83.03
84445;BME280;74683;48.402;10.596;2024-02-21T07:45:43;97118.19;;;3.24;82.13
84445;BME280;74683;48.402;10.596;2024-02-21T07:48:10;97117.47;;;3.42;81.03
84445;BME280;74683;48.402;10.596;2024-02-21T07:50:37;97114.09;;;3.56;80.17
84445;BME280;74683;48.402;10.596;2024-02-21T07:53:04;97119.94;;;3.68;80.13
84445;BME280;74683;48.402;10.596;2024-02-21T07:55:31;97110.25;;;3.81;80.18
84445;BME280;74683;48.402;10.596;2024-02-21T07:57:57;97112.84;;;3.91;78.75
84445;BME280;74683;48.402;10.596;2024-02-21T08:00:24;97106.47;;;4.00;79.14
84445;BME280;74683;48.402;10.596;2024-02-21T08:02:50;97110.13;;;4.15;78.73
84445;BME280;74683;48.402;10.596;2024-02-21T08:05:17;97103.13;;;4.27;78.62
84445;BME280;74683;48.402;10.596;2024-02-21T08:07:44;97095.94;;;4.37;79.05
84445;BME280;74683;48.402;10.596;2024-02-21T08:10:10;97103.19;;;4.41;78.16
84445;BME280;74683;48.402;10.596;2024-02-21T08:12:37;97091.66;;;4.49;77.88
84445;BME280;74683;48.402;10.596;2024-02-21T08:15:05;97088.41;;;4.66;77.81
84445;BME280;74683;48.402;10.596;2024-02-21T08:17:32;97094.69;;;4.80;77.35
84445;BME280;74683;48.402;10.596;2024-02-21T08:19:59;97088.09;;;5.00;76.14
84445;BME280;74683;48.402;10.596;2024-02-21T08:22:26;97077.03;;;5.10;76.02
84445;BME280;74683;48.402;10.596;2024-02-21T08:24:53;97080.69;;;5.19;74.58
84445;BME280;74683;48.402;10.596;2024-02-21T08:27:20;97081.03;;;5.32;74.45
84445;BME280;74683;48.402;10.596;2024-02-21T08:29:46;97078.13;;;5.42;73.97
84445;BME280;74683;48.402;10.596;2024-02-21T08:32:13;97089.81;;;5.56;72.24
84445;BME280;74683;48.402;10.596;2024-02-21T08:34:40;97087.09;;;5.70;71.65
84445;BME280;74683;48.402;10.596;2024-02-21T08:37:06;97076.19;;;5.84;71.99
84445;BME280;74683;48.402;10.596;2024-02-21T08:39:33;97072.88;;;6.00;70.20
84445;BME280;74683;48.402;10.596;2024-02-21T08:41:59;97072.22;;;6.17;70.45
84445;BME280;74683;48.402;10.596;2024-02-21T08:44:28;97069.19;;;6.32;69.38
84445;BME280;74683;48.402;10.596;2024-02-21T08:46:55;97061.44;;;6.48;69.32
84445;BME280;74683;48.402;10.596;2024-02-21T08:49:22;97054.31;;;6.83;69.56
84445;BME280;74683;48.402;10.596;2024-02-21T08:51:50;97053.50;;;7.36;66.48
84445;BME280;74683;48.402;10.596;2024-02-21T08:54:16;97051.31;;;8.04;65.49
84445;BME280;74683;48.402;10.596;2024-02-21T08:56:43;97043.84;;;8.44;63.09
84445;BME280;74683;48.402;10.596;2024-02-21T08:59:10;97045.94;;;8.73;62.27
84445;BME280;74683;48.402;10.596;2024-02-21T09:01:36;97049.09;;;9.27;60.57
84445;BME280;74683;48.402;10.596;2024-02-21T09:04:04;97043.59;;;9.74;59.19
84445;BME280;74683;48.402;10.596;2024-02-21T09:06:32;97037.53;;;10.19;58.89
84445;BME280;74683;48.402;10.596;2024-02-21T09:09:00;97032.00;;;10.27;57.36
84445;BME280;74683;48.402;10.596;2024-02-21T09:11:27;97038.56;;;10.05;56.53
84445;BME280;74683;48.402;10.596;2024-02-21T09:13:54;97034.09;;;9.63;56.97
84445;BME280;74683;48.402;10.596;2024-02-21T09:16:22;97028.91;;;9.70;56.92
84445;BME280;74683;48.402;10.596;2024-02-21T09:18:49;97036.59;;;10.15;57.27
84445;BME280;74683;48.402;10.596;2024-02-21T09:21:18;97027.19;;;10.45;56.08
84445;BME280;74683;48.402;10.596;2024-02-21T09:23:45;97028.91;;;9.99;55.82
84445;BME280;74683;48.402;10.596;2024-02-21T09:26:12;97022.78;;;10.53;56.08
84445;BME280;74683;48.402;10.596;2024-02-21T09:28:45;97017.97;;;10.41;54.94
84445;BME280;74683;48.402;10.596;2024-02-21T09:31:12;97023.06;;;10.30;55.42
84445;BME280;74683;48.402;10.596;2024-02-21T09:33:39;97007.31;;;10.60;55.13
84445;BME280;74683;48.402;10.596;2024-02-21T09:36:06;97010.75;;;10.57;54.84
84445;BME280;74683;48.402;10.596;2024-02-21T09:38:32;97004.97;;;11.04;54.22
84445;BME280;74683;48.402;10.596;2024-02-21T09:41:04;96997.41;;;11.01;54.27
84445;BME280;74683;48.402;10.596;2024-02-21T09:43:34;96999.00;;;11.60;53.37
84445;BME280;74683;48.402;10.596;2024-02-21T09:46:01;96991.97;;;11.50;52.94
84445;BME280;74683;48.402;10.596;2024-02-21T09:51:09;97001.63;;;11.32;52.99
84445;BME280;74683;48.402;10.596;2024-02-21T09:53:37;96992.78;;;11.38;52.78
84445;BME280;74683;48.402;10.596;2024-02-21T09:56:07;96979.59;;;11.44;52.53
84445;BME280;74683;48.402;10.596;2024-02-21T09:58:37;96977.75;;;11.48;52.57
84445;BME280;74683;48.402;10.596;2024-02-21T10:01:04;96972.16;;;11.57;52.48
84445;BME280;74683;48.402;10.596;2024-02-21T10:03:51;96972.16;;;11.44;52.22
84445;BME280;74683;48.402;10.596;2024-02-21T10:06:18;96970.53;;;11.31;52.16
84445;BME280;74683;48.402;10.596;2024-02-21T10:08:52;96963.44;;;11.42;51.90
84445;BME280;74683;48.402;10.596;2024-02-21T10:11:25;96972.84;;;11.41;52.02
84445;BME280;74683;48.402;10.596;2024-02-21T10:14:03;96971.25;;;11.53;51.14
84445;BME280;74683;48.402;10.596;2024-02-21T10:16:32;96971.44;;;11.60;50.95
84445;BME280;74683;48.402;10.596;2024-02-21T10:19:00;96964.13;;;11.52;51.08
84445;BME280;74683;48.402;10.596;2024-02-21T10:21:26;96960.31;;;11.68;51.24
84445;BME280;74683;48.402;10.596;2024-02-21T10:23:53;96956.88;;;11.59;50.82
84445;BME280;74683;48.402;10.596;2024-02-21T10:26:20;96959.97;;;11.45;51.45
84445;BME280;74683;48.402;10.596;2024-02-21T10:28:47;96958.38;;;11.44;51.88
84445;BME280;74683;48.402;10.596;2024-02-21T10:31:22;96951.91;;;11.16;51.36
84445;BME280;74683;48.402;10.596;2024-02-21T10:33:58;96947.81;;;10.77;51.73
84445;BME280;74683;48.402;10.596;2024-02-21T10:36:28;96950.56;;;10.77;52.18
84445;BME280;74683;48.402;10.596;2024-02-21T10:38:56;96944.03;;;10.81;51.82
84445;BME280;74683;48.402;10.596;2024-02-21T10:41:23;96936.28;;;10.96;51.68
84445;BME280;74683;48.402;10.596;2024-02-21T10:43:54;96930.38;;;11.18;51.72
84445;BME280;74683;48.402;10.596;2024-02-21T10:46:23;96921.34;;;11.42;50.79
84445;BME280;74683;48.402;10.596;2024-02-21T10:51:49;96919.81;;;11.69;50.70
84445;BME280;74683;48.402;10.596;2024-02-21T10:54:29;96913.03;;;11.78;49.44
84445;BME280;74683;48.402;10.596;2024-02-21T10:56:57;96896.88;;;11.65;49.38
84445;BME280;74683;48.402;10.596;2024-02-21T10:59:25;96898.97;;;11.80;50.33
84445;BME280;74683;48.402;10.596;2024-02-21T11:01:52;96888.31;;;12.06;49.61
84445;BME280;74683;48.402;10.596;2024-02-21T11:04:25;96884.63;;;12.15;49.22
84445;BME280;74683;48.402;10.596;2024-02-21T11:06:52;96887.34;;;12.27;48.89
84445;BME280;74683;48.402;10.596;2024-02-21T11:09:29;96890.31;;;12.34;48.14
84445;BME280;74683;48.402;10.596;2024-02-21T11:11:57;96891.19;;;12.38;47.28
84445;BME280;74683;48.402;10.596;2024-02-21T11:14:27;96889.66;;;12.25;47.08
84445;BME280;74683;48.402;10.596;2024-02-21T11:16:54;96886.09;;;12.24;47.28
84445;BME280;74683;48.402;10.596;2024-02-21T11:19:24;96884.13;;;12.25;46.36
84445;BME280;74683;48.402;10.596;2024-02-21T11:21:53;96878.38;;;12.30;46.06
84445;BME280;74683;48.402;10.596;2024-02-21T11:24:30;96864.84;;;12.25;46.22
84445;BME280;74683;48.402;10.596;2024-02-21T11:27:16;96857.59;;;12.48;46.09
84445;BME280;74683;48.402;10.596;2024-02-21T11:29:47;96853.56;;;12.74;45.51
84445;BME280;74683;48.402;10.596;2024-02-21T11:32:17;96846.78;;;12.87;44.64
84445;BME280;74683;48.402;10.596;2024-02-21T11:35:02;96837.81;;;12.74;45.19
84445;BME280;74683;48.402;10.596;2024-02-21T11:37:33;96842.88;;;12.88;44.18
84445;BME280;74683;48.402;10.596;2024-02-21T11:40:00;96829.00;;;13.00;45.59
84445;BME280;74683;48.402;10.596;2024-02-21T11:42:28;96823.94;;;13.18;45.49
84445;BME280;74683;48.402;10.596;2024-02-21T11:44:59;96820.47;;;13.21;44.79
84445;BME280;74683;48.402;10.596;2024-02-21T11:47:28;96812.84;;;13.49;43.72
84445;BME280;74683;48.402;10.596;2024-02-21T11:49:55;96806.41;;;13.61;44.73
84445;BME280;74683;48.402;10.596;2024-02-21T11:52:23;96807.09;;;13.07;43.36
84445;BME280;74683;48.402;10.596;2024-02-21T11:54:55;96794.13;;;13.08;44.27
84445;BME280;74683;48.402;10.596;2024-02-21T11:57:24;96784.22;;;13.23;44.40
84445;BME280;74683;48.402;10.596;2024-02-21T11:59:51;96774.81;;;13.43;43.78
84445;BME280;74683;48.402;10.596;2024-02-21T12:02:26;96773.63;;;13.60;43.61
84445;BME280;74683;48.402;10.596;2024-02-21T12:04:53;96765.94;;;13.69;42.88
84445;BME280;74683;48.402;10.596;2024-02-21T12:07:21;96761.41;;;13.80;42.79
84445;BME280;74683;48.402;10.596;2024-02-21T12:09:51;96752.91;;;13.89;42.61
84445;BME280;74683;48.402;10.596;2024-02-21T12:12:20;96739.66;;;13.98;41.93
84445;BME280;74683;48.402;10.596;2024-02-21T12:14:56;96751.78;;;14.13;41.57
84445;BME280;74683;48.402;10.596;2024-02-21T12:17:26;96741.06;;;13.88;41.38
84445;BME280;74683;48.402;10.596;2024-02-21T12:19:52;96736.31;;;14.08;41.30
84445;BME280;74683;48.402;10.596;2024-02-21T12:22:19;96731.00;;;13.99;41.73
84445;BME280;74683;48.402;10.596;2024-02-21T12:24:46;96740.56;;;14.25;42.13
84445;BME280;74683;48.402;10.596;2024-02-21T12:27:14;96726.84;;;14.09;41.43
84445;BME280;74683;48.402;10.596;2024-02-21T12:29:41;96719.44;;;13.94;41.58
84445;BME280;74683;48.402;10.596;2024-02-21T12:32:08;96717.84;;;13.93;41.15
84445;BME280;74683;48.402;10.596;2024-02-21T12:34:35;96716.25;;;13.92;41.67
84445;BME280;74683;48.402;10.596;2024-02-21T12:37:18;96708.75;;;13.92;41.71
84445;BME280;74683;48.402;10.596;2024-02-21T12:39:47;96708.09;;;13.99;42.30
84445;BME280;74683;48.402;10.596;2024-02-21T12:42:14;96704.75;;;13.90;41.92
84445;BME280;74683;48.402;10.596;2024-02-21T12:44:40;96702.41;;;13.92;42.00
84445;BME280;74683;48.402;10.596;2024-02-21T12:47:11;96696.16;;;13.95;40.93
84445;BME280;74683;48.402;10.596;2024-02-21T12:49:40;96684.28;;;13.94;41.42
84445;BME280;74683;48.402;10.596;2024-02-21T12:52:11;96684.16;;;14.06;40.44
84445;BME280;74683;48.402;10.596;2024-02-21T12:54:38;96673.13;;;13.87;40.55
84445;BME280;74683;48.402;10.596;2024-02-21T12:57:04;96674.63;;;13.85;41.22
84445;BME280;74683;48.402;10.596;2024-02-21T12:59:31;96674.59;;;13.81;42.59
84445;BME280;74683;48.402;10.596;2024-02-21T13:01:58;96671.22;;;13.91;41.26
84445;BME280;74683;48.402;10.596;2024-02-21T13:04:25;96665.28;;;14.12;41.71
84445;BME280;74683;48.402;10.596;2024-02-21T13:06:51;96660.34;;;14.25;41.35
84445;BME280;74683;48.402;10.596;2024-02-21T13:09:18;96650.84;;;14.22;40.92
84445;BME280;74683;48.402;10.596;2024-02-21T13:11:45;96631.56;;;14.49;40.45